sensor_id;sensor_type;location;lat;lon;timestamp;pressure;altitude;pressure_sealevel;temperature;humidity
75317;BME280;63913;51.492;10.368;2023-07-24T00:00:29;97517.84;;;17.95;85.18
75317;BME280;63913;51.492;10.368;2023-07-24T00:02:54;97514.34;;;17.96;84.99
75317;BME280;63913;51.492;10.368;2023-07-24T00:05:21;97505.66;;;17.97;85.06
75317;BME280;63913;51.492;10.368;2023-07-24T00:07:46;97501.09;;;18.07;83.70
75317;BME280;63913;51.492;10.368;2023-07-24T00:10:11;97499.34;;;18.07;84.27
75317;BME280;63913;51.492;10.368;2023-07-24T00:12:37;97490.03;;;17.99;83.06
75317;BME280;63913;51.492;10.368;2023-07-24T00:15:02;97484.03;;;17.95;84.11
75317;BME280;63913;51.492;10.368;2023-07-24T00:17:28;97485.75;;;17.96;83.19
75317;BME280;63913;51.492;10.368;2023-07-24T00:19:53;97476.19;;;17.97;82.75
75317;BME280;63913;51.492;10.368;2023-07-24T00:22:19;97487.31;;;18.02;83.24
75317;BME280;63913;51.492;10.368;2023-07-24T00:24:44;97489.97;;;18.00;82.97
75317;BME280;63913;51.492;10.368;2023-07-24T00:27:10;97487.31;;;18.03;81.55
75317;BME280;63913;51.492;10.368;2023-07-24T00:29:35;97484.75;;;18.00;82.17
75317;BME280;63913;51.492;10.368;2023-07-24T00:32:00;97482.16;;;18.00;82.19
75317;BME280;63913;51.492;10.368;2023-07-24T00:34:27;97486.44;;;18.03;82.94
75317;BME280;63913;51.492;10.368;2023-07-24T00:36:52;97480.53;;;17.96;81.94
75317;BME280;63913;51.492;10.368;2023-07-24T00:39:18;97480.59;;;17.93;81.47
75317;BME280;63913;51.492;10.368;2023-07-24T00:41:43;97479.69;;;17.96;82.59
75317;BME280;63913;51.492;10.368;2023-07-24T00:44:09;97475.41;;;17.93;82.54
75317;BME280;63913;51.492;10.368;2023-07-24T00:46:35;97469.47;;;17.86;83.28
75317;BME280;63913;51.492;10.368;2023-07-24T00:49:02;97479.88;;;17.86;82.71
75317;BME280;63913;51.492;10.368;2023-07-24T00:51:29;97479.06;;;17.84;82.31
75317;BME280;63913;51.492;10.368;2023-07-24T00:53:56;97483.53;;;17.79;82.82
75317;BME280;63913;51.492;10.368;2023-07-24T00:56:23;97475.84;;;17.75;82.88
75317;BME280;63913;51.492;10.368;2023-07-24T00:58:48;97466.28;;;17.75;83.83
75317;BME280;63913;51.492;10.368;2023-07-24T01:01:16;97470.63;;;17.75;82.67
75317;BME280;63913;51.492;10.368;2023-07-24T01:03:43;97463.56;;;17.81;82.72
75317;BME280;63913;51.492;10.368;2023-07-24T01:06:09;97471.31;;;17.83;82.70
75317;BME280;63913;51.492;10.368;2023-07-24T01:08:35;97468.09;;;17.72;82.93
75317;BME280;63913;51.492;10.368;2023-07-24T01:11:21;97463.91;;;17.66;83.34
75317;BME280;63913;51.492;10.368;2023-07-24T01:13:57;97476.81;;;17.69;83.39
75317;BME280;63913;51.492;10.368;2023-07-24T01:16:31;97469.88;;;17.70;82.51
75317;BME280;63913;51.492;10.368;2023-07-24T01:18:58;97475.09;;;17.68;83.04
75317;BME280;63913;51.492;10.368;2023-07-24T01:21:33;97475.03;;;17.71;82.32
75317;BME280;63913;51.492;10.368;2023-07-24T01:24:23;97477.75;;;17.67;83.22
75317;BME280;63913;51.492;10.368;2023-07-24T01:26:54;97476.97;;;17.62;82.51
75317;BME280;63913;51.492;10.368;2023-07-24T01:29:19;97473.44;;;17.66;82.70
75317;BME280;63913;51.492;10.368;2023-07-24T01:31:45;97476.03;;;17.66;82.16
75317;BME280;63913;51.492;10.368;2023-07-24T01:34:12;97479.59;;;17.60;82.15
75317;BME280;63913;51.492;10.368;2023-07-24T01:36:37;97480.44;;;17.61;82.83
75317;BME280;63913;51.492;10.368;2023-07-24T01:39:04;97470.88;;;17.64;82.02
75317;BME280;63913;51.492;10.368;2023-07-24T01:41:31;97478.66;;;17.64;81.90
75317;BME280;63913;51.492;10.368;2023-07-24T01:43:59;97470.91;;;17.61;82.45
75317;BME280;63913;51.492;10.368;2023-07-24T01:46:24;97474.38;;;17.60;82.16
75317;BME280;63913;51.492;10.368;2023-07-24T01:48:49;97477.84;;;17.62;81.72
75317;BME280;63913;51.492;10.368;2023-07-24T01:51:15;97477.84;;;17.61;81.40
75317;BME280;63913;51.492;10.368;2023-07-24T01:53:40;97480.44;;;17.62;81.29
75317;BME280;63913;51.492;10.368;2023-07-24T01:56:06;97470.88;;;17.64;81.36
75317;BME280;63913;51.492;10.368;2023-07-24T01:58:32;97474.31;;;17.66;81.03
75317;BME280;63913;51.492;10.368;2023-07-24T02:00:57;97465.63;;;17.67;80.76
75317;BME280;63913;51.492;10.368;2023-07-24T02:03:22;97474.22;;;17.69;80.65
75317;BME280;63913;51.492;10.368;2023-07-24T02:05:51;97462.09;;;17.68;80.64
75317;BME280;63913;51.492;10.368;2023-07-24T02:08:17;97464.63;;;17.73;80.54
75317;BME280;63913;51.492;10.368;2023-07-24T02:10:42;97463.72;;;17.74;80.30
75317;BME280;63913;51.492;10.368;2023-07-24T02:13:08;97459.44;;;17.71;80.20
75317;BME280;63913;51.492;10.368;2023-07-24T02:15:34;97461.03;;;17.77;80.24
75317;BME280;63913;51.492;10.368;2023-07-24T02:18:00;97457.63;;;17.75;80.06
75317;BME280;63913;51.492;10.368;2023-07-24T02:20:25;97462.00;;;17.73;80.15
75317;BME280;63913;51.492;10.368;2023-07-24T02:22:50;97458.56;;;17.72;80.51
75317;BME280;63913;51.492;10.368;2023-07-24T02:25:16;97455.06;;;17.73;80.44
75317;BME280;63913;51.492;10.368;2023-07-24T02:27:41;97448.16;;;17.72;80.15
75317;BME280;63913;51.492;10.368;2023-07-24T02:30:07;97446.38;;;17.74;79.91
75317;BME280;63913;51.492;10.368;2023-07-24T02:32:34;97442.94;;;17.72;80.15
75317;BME280;63913;51.492;10.368;2023-07-24T02:34:59;97442.94;;;17.72;79.92
75317;BME280;63913;51.492;10.368;2023-07-24T02:37:24;97436.84;;;17.75;79.53
75317;BME280;63913;51.492;10.368;2023-07-24T02:39:51;97432.44;;;17.77;79.24
75317;BME280;63913;51.492;10.368;2023-07-24T02:42:17;97447.97;;;17.80;79.49
75317;BME280;63913;51.492;10.368;2023-07-24T02:44:43;97442.81;;;17.78;79.41
75317;BME280;63913;51.492;10.368;2023-07-24T02:47:08;97442.97;;;17.71;80.23
75317;BME280;63913;51.492;10.368;2023-07-24T02:49:34;97447.41;;;17.67;79.49
75317;BME280;63913;51.492;10.368;2023-07-24T02:51:59;97454.28;;;17.68;79.44
75317;BME280;63913;51.492;10.368;2023-07-24T02:54:25;97452.50;;;17.72;79.36
75317;BME280;63913;51.492;10.368;2023-07-24T02:56:51;97450.63;;;17.77;78.93
75317;BME280;63913;51.492;10.368;2023-07-24T02:59:17;97444.53;;;17.78;79.42
75317;BME280;63913;51.492;10.368;2023-07-24T03:01:42;97449.75;;;17.78;79.27
75317;BME280;63913;51.492;10.368;2023-07-24T03:04:08;97439.38;;;17.76;79.49
75317;BME280;63913;51.492;10.368;2023-07-24T03:06:33;97444.56;;;17.76;79.30
75317;BME280;63913;51.492;10.368;2023-07-24T03:08:58;97442.97;;;17.71;79.36
75317;BME280;63913;51.492;10.368;2023-07-24T03:11:24;97434.31;;;17.70;79.40
75317;BME280;63913;51.492;10.368;2023-07-24T03:13:49;97426.50;;;17.72;79.37
75317;BME280;63913;51.492;10.368;2023-07-24T03:16:15;97434.94;;;17.81;79.21
75317;BME280;63913;51.492;10.368;2023-07-24T03:18:42;97432.25;;;17.84;79.03
75317;BME280;63913;51.492;10.368;2023-07-24T03:21:08;97422.81;;;17.82;78.60
75317;BME280;63913;51.492;10.368;2023-07-24T03:23:34;97426.28;;;17.81;78.88
75317;BME280;63913;51.492;10.368;2023-07-24T03:25:59;97431.41;;;17.84;78.78
75317;BME280;63913;51.492;10.368;2023-07-24T03:28:24;97428.03;;;17.80;78.64
75317;BME280;63913;51.492;10.368;2023-07-24T03:30:50;97427.22;;;17.77;78.50
75317;BME280;63913;51.492;10.368;2023-07-24T03:33:16;97429.78;;;17.80;78.77
75317;BME280;63913;51.492;10.368;2023-07-24T03:35:41;97421.91;;;17.83;78.59
75317;BME280;63913;51.492;10.368;2023-07-24T03:38:07;97422.69;;;17.85;78.34
75317;BME280;63913;51.492;10.368;2023-07-24T03:40:32;97415.72;;;17.87;78.30
75317;BME280;63913;51.492;10.368;2023-07-24T03:42:58;97415.72;;;17.87;78.09
75317;BME280;63913;51.492;10.368;2023-07-24T03:45:23;97412.25;;;17.88;78.13
75317;BME280;63913;51.492;10.368;2023-07-24T03:47:49;97408.84;;;17.84;78.18
75317;BME280;63913;51.492;10.368;2023-07-24T03:50:16;97399.28;;;17.85;78.50
75317;BME280;63913;51.492;10.368;2023-07-24T03:52:41;97391.50;;;17.85;78.47
75317;BME280;63913;51.492;10.368;2023-07-24T03:55:07;97385.44;;;17.84;78.43
75317;BME280;63913;51.492;10.368;2023-07-24T03:57:33;97391.63;;;17.80;78.33
75317;BME280;63913;51.492;10.368;2023-07-24T03:59:58;97391.41;;;17.89;78.15
75317;BME280;63913;51.492;10.368;2023-07-24T04:02:24;97399.41;;;17.82;78.53
75317;BME280;63913;51.492;10.368;2023-07-24T04:04:49;97398.41;;;17.86;78.34
75317;BME280;63913;51.492;10.368;2023-07-24T04:07:14;97408.91;;;17.83;78.03
75317;BME280;63913;51.492;10.368;2023-07-24T04:09:40;97402.84;;;17.82;78.51
75317;BME280;63913;51.492;10.368;2023-07-24T04:12:05;97399.41;;;17.82;78.19
75317;BME280;63913;51.492;10.368;2023-07-24T04:14:31;97400.31;;;17.79;78.62
75317;BME280;63913;51.492;10.368;2023-07-24T04:16:56;97398.56;;;17.80;78.81
75317;BME280;63913;51.492;10.368;2023-07-24T04:19:21;97395.09;;;17.79;78.71
75317;BME280;63913;51.492;10.368;2023-07-24T04:21:47;97395.13;;;17.78;78.75
75317;BME280;63913;51.492;10.368;2023-07-24T04:24:12;97386.44;;;17.79;78.38
75317;BME280;63913;51.492;10.368;2023-07-24T04:26:37;97376.00;;;17.82;78.31
75317;BME280;63913;51.492;10.368;2023-07-24T04:29:05;97373.38;;;17.82;78.53
75317;BME280;63913;51.492;10.368;2023-07-24T04:31:30;97379.47;;;17.81;78.32
75317;BME280;63913;51.492;10.368;2023-07-24T04:33:56;97386.38;;;17.82;78.60
75317;BME280;63913;51.492;10.368;2023-07-24T04:36:21;97396.78;;;17.82;78.84
75317;BME280;63913;51.492;10.368;2023-07-24T04:38:46;97403.78;;;17.80;78.52
75317;BME280;63913;51.492;10.368;2023-07-24T04:41:12;97393.34;;;17.81;78.93
75317;BME280;63913;51.492;10.368;2023-07-24T04:43:37;97402.84;;;17.82;78.64
75317;BME280;63913;51.492;10.368;2023-07-24T04:46:03;97401.09;;;17.83;78.72
75317;BME280;63913;51.492;10.368;2023-07-24T04:48:29;97386.19;;;17.89;77.79
75317;BME280;63913;51.492;10.368;2023-07-24T04:50:55;97384.31;;;17.95;77.85
75317;BME280;63913;51.492;10.368;2023-07-24T04:53:21;97386.94;;;17.95;77.79
75317;BME280;63913;51.492;10.368;2023-07-24T04:55:46;97385.78;;;18.06;77.56
75317;BME280;63913;51.492;10.368;2023-07-24T04:58:12;97379.69;;;18.07;77.21
75317;BME280;63913;51.492;10.368;2023-07-24T05:00:37;97376.13;;;18.10;77.38
75317;BME280;63913;51.492;10.368;2023-07-24T05:03:03;97363.03;;;18.14;76.94
75317;BME280;63913;51.492;10.368;2023-07-24T05:05:28;97370.63;;;18.22;76.72
75317;BME280;63913;51.492;10.368;2023-07-24T05:07:53;97362.50;;;18.33;76.30
75317;BME280;63913;51.492;10.368;2023-07-24T05:10:19;97357.28;;;18.34;75.86
75317;BME280;63913;51.492;10.368;2023-07-24T05:12:44;97365.72;;;18.42;75.83
75317;BME280;63913;51.492;10.368;2023-07-24T05:15:10;97360.44;;;18.45;75.80
75317;BME280;63913;51.492;10.368;2023-07-24T05:17:35;97365.66;;;18.45;75.62
75317;BME280;63913;51.492;10.368;2023-07-24T05:20:00;97363.09;;;18.44;75.60
75317;BME280;63913;51.492;10.368;2023-07-24T05:22:26;97354.13;;;18.54;75.05
75317;BME280;63913;51.492;10.368;2023-07-24T05:24:51;97348.03;;;18.55;75.37
75317;BME280;63913;51.492;10.368;2023-07-24T05:27:17;97355.84;;;18.55;74.96
75317;BME280;63913;51.492;10.368;2023-07-24T05:29:42;97350.56;;;18.58;74.85
75317;BME280;63913;51.492;10.368;2023-07-24T05:32:08;97347.94;;;18.59;75.23
75317;BME280;63913;51.492;10.368;2023-07-24T05:34:34;97356.59;;;18.60;74.50
75317;BME280;63913;51.492;10.368;2023-07-24T05:36:59;97353.94;;;18.61;74.26
75317;BME280;63913;51.492;10.368;2023-07-24T05:39:24;97358.50;;;18.53;74.74
75317;BME280;63913;51.492;10.368;2023-07-24T05:41:50;97348.78;;;18.60;73.73
75317;BME280;63913;51.492;10.368;2023-07-24T05:44:15;97340.91;;;18.63;73.55
75317;BME280;63913;51.492;10.368;2023-07-24T05:46:40;97344.28;;;18.65;73.30
75317;BME280;63913;51.492;10.368;2023-07-24T05:49:06;97352.88;;;18.68;72.41
75317;BME280;63913;51.492;10.368;2023-07-24T05:51:31;97344.19;;;18.70;72.48
75317;BME280;63913;51.492;10.368;2023-07-24T05:53:57;97339.91;;;18.67;72.79
75317;BME280;63913;51.492;10.368;2023-07-24T05:56:22;97341.53;;;18.71;72.27
75317;BME280;63913;51.492;10.368;2023-07-24T05:58:47;97336.22;;;18.74;71.72
75317;BME280;63913;51.492;10.368;2023-07-24T06:01:13;97323.13;;;18.77;71.38
75317;BME280;63913;51.492;10.368;2023-07-24T06:03:39;97318.72;;;18.79;71.83
75317;BME280;63913;51.492;10.368;2023-07-24T06:06:04;97312.63;;;18.80;71.23
75317;BME280;63913;51.492;10.368;2023-07-24T06:08:30;97310.03;;;18.80;71.89
75317;BME280;63913;51.492;10.368;2023-07-24T06:10:55;97309.88;;;18.85;71.93
75317;BME280;63913;51.492;10.368;2023-07-24T06:13:21;97329.84;;;18.84;71.79
75317;BME280;63913;51.492;10.368;2023-07-24T06:15:48;97314.94;;;18.89;71.30
75317;BME280;63913;51.492;10.368;2023-07-24T06:18:13;97327.19;;;18.86;71.54
75317;BME280;63913;51.492;10.368;2023-07-24T06:20:39;97328.06;;;18.86;71.69
75317;BME280;63913;51.492;10.368;2023-07-24T06:23:07;97342.66;;;18.92;72.17
75317;BME280;63913;51.492;10.368;2023-07-24T06:25:33;97342.59;;;18.93;71.39
75317;BME280;63913;51.492;10.368;2023-07-24T06:27:58;97350.50;;;18.90;71.47
75317;BME280;63913;51.492;10.368;2023-07-24T06:30:24;97340.97;;;18.89;71.51
75317;BME280;63913;51.492;10.368;2023-07-24T06:32:50;97335.56;;;18.97;71.28
75317;BME280;63913;51.492;10.368;2023-07-24T06:35:15;97337.41;;;18.93;71.31
75317;BME280;63913;51.492;10.368;2023-07-24T06:37:40;97349.38;;;18.99;71.47
75317;BME280;63913;51.492;10.368;2023-07-24T06:40:07;97335.50;;;18.98;71.06
75317;BME280;63913;51.492;10.368;2023-07-24T06:42:32;97342.38;;;19.01;71.37
75317;BME280;63913;51.492;10.368;2023-07-24T06:44:58;97344.06;;;19.03;71.36
75317;BME280;63913;51.492;10.368;2023-07-24T06:47:23;97331.69;;;19.10;70.65
75317;BME280;63913;51.492;10.368;2023-07-24T06:49:49;97334.31;;;19.09;70.62
75317;BME280;63913;51.492;10.368;2023-07-24T06:52:14;97335.03;;;19.14;70.74
75317;BME280;63913;51.492;10.368;2023-07-24T06:54:40;97322.78;;;19.17;70.40
75317;BME280;63913;51.492;10.368;2023-07-24T06:57:05;97333.16;;;19.19;69.87
75317;BME280;63913;51.492;10.368;2023-07-24T06:59:31;97325.19;;;19.23;69.75
75317;BME280;63913;51.492;10.368;2023-07-24T07:01:56;97311.16;;;19.27;69.83
75317;BME280;63913;51.492;10.368;2023-07-24T07:04:21;97315.38;;;19.31;69.27
75317;BME280;63913;51.492;10.368;2023-07-24T07:06:47;97303.09;;;19.35;69.06
75317;BME280;63913;51.492;10.368;2023-07-24T07:09:12;97301.19;;;19.40;68.81
75317;BME280;63913;51.492;10.368;2023-07-24T07:11:38;97290.75;;;19.40;68.84
75317;BME280;63913;51.492;10.368;2023-07-24T07:14:04;97287.13;;;19.46;68.46
75317;BME280;63913;51.492;10.368;2023-07-24T07:16:29;97286.19;;;19.48;68.79
75317;BME280;63913;51.492;10.368;2023-07-24T07:18:55;97275.41;;;19.59;68.67
75317;BME280;63913;51.492;10.368;2023-07-24T07:21:20;97283.94;;;19.64;68.19
75317;BME280;63913;51.492;10.368;2023-07-24T07:23:46;97285.59;;;19.66;68.45
75317;BME280;63913;51.492;10.368;2023-07-24T07:26:11;97277.47;;;19.75;68.14
75317;BME280;63913;51.492;10.368;2023-07-24T07:28:36;97273.03;;;19.77;67.29
75317;BME280;63913;51.492;10.368;2023-07-24T07:31:03;97272.78;;;19.85;65.63
75317;BME280;63913;51.492;10.368;2023-07-24T07:33:28;97281.72;;;20.03;65.43
75317;BME280;63913;51.492;10.368;2023-07-24T07:35:54;97271.72;;;20.15;64.04
75317;BME280;63913;51.492;10.368;2023-07-24T07:38:20;97279.34;;;20.20;64.54
75317;BME280;63913;51.492;10.368;2023-07-24T07:40:48;97270.94;;;20.37;62.77
75317;BME280;63913;51.492;10.368;2023-07-24T07:43:13;97273.41;;;20.41;63.33
75317;BME280;63913;51.492;10.368;2023-07-24T07:45:39;97264.53;;;20.45;62.35
75317;BME280;63913;51.492;10.368;2023-07-24T07:48:04;97266.00;;;20.52;62.14
75317;BME280;63913;51.492;10.368;2023-07-24T07:50:30;97274.41;;;20.61;62.83
75317;BME280;63913;51.492;10.368;2023-07-24T07:52:55;97276.81;;;20.67;61.85
75317;BME280;63913;51.492;10.368;2023-07-24T07:55:21;97262.72;;;20.71;61.23
75317;BME280;63913;51.492;10.368;2023-07-24T07:57:46;97259.81;;;20.78;61.98
75317;BME280;63913;51.492;10.368;2023-07-24T08:00:12;97237.00;;;20.83;60.22
75317;BME280;63913;51.492;10.368;2023-07-24T08:02:38;97245.59;;;20.85;60.78
75317;BME280;63913;51.492;10.368;2023-07-24T08:05:09;97244.38;;;20.94;61.53
75317;BME280;63913;51.492;10.368;2023-07-24T08:07:34;97245.13;;;20.98;61.51
75317;BME280;63913;51.492;10.368;2023-07-24T08:10:00;97238.63;;;21.08;60.96
75317;BME280;63913;51.492;10.368;2023-07-24T08:12:26;97243.44;;;21.18;60.87
75317;BME280;63913;51.492;10.368;2023-07-24T08:14:51;97237.97;;;21.24;59.91
75317;BME280;63913;51.492;10.368;2023-07-24T08:17:16;97231.91;;;21.24;60.68
75317;BME280;63913;51.492;10.368;2023-07-24T08:19:42;97232.38;;;21.33;59.24
75317;BME280;63913;51.492;10.368;2023-07-24T08:22:07;97241.75;;;21.39;59.43
75317;BME280;63913;51.492;10.368;2023-07-24T08:24:34;97237.38;;;21.40;57.32
75317;BME280;63913;51.492;10.368;2023-07-24T08:27:00;97242.34;;;21.46;58.77
75317;BME280;63913;51.492;10.368;2023-07-24T08:29:26;97235.59;;;21.40;58.12
75317;BME280;63913;51.492;10.368;2023-07-24T08:31:51;97248.44;;;21.46;58.24
75317;BME280;63913;51.492;10.368;2023-07-24T08:34:17;97239.56;;;21.49;59.11
75317;BME280;63913;51.492;10.368;2023-07-24T08:36:42;97249.13;;;21.50;58.96
75317;BME280;63913;51.492;10.368;2023-07-24T08:39:07;97256.97;;;21.50;58.48
75317;BME280;63913;51.492;10.368;2023-07-24T08:41:33;97255.63;;;21.61;56.40
75317;BME280;63913;51.492;10.368;2023-07-24T08:44:00;97251.91;;;21.67;57.12
75317;BME280;63913;51.492;10.368;2023-07-24T08:46:27;97245.88;;;21.65;57.02
75317;BME280;63913;51.492;10.368;2023-07-24T08:48:54;97248.75;;;21.59;57.69
75317;BME280;63913;51.492;10.368;2023-07-24T08:51:20;97236.53;;;21.59;56.62
75317;BME280;63913;51.492;10.368;2023-07-24T08:53:48;97239.94;;;21.61;56.07
75317;BME280;63913;51.492;10.368;2023-07-24T08:56:13;97245.06;;;21.64;56.34
75317;BME280;63913;51.492;10.368;2023-07-24T08:58:40;97232.00;;;21.83;56.69
75317;BME280;63913;51.492;10.368;2023-07-24T09:01:06;97240.38;;;21.91;56.31
75317;BME280;63913;51.492;10.368;2023-07-24T09:03:32;97246.28;;;21.96;56.15
75317;BME280;63913;51.492;10.368;2023-07-24T09:05:58;97253.22;;;21.97;55.61
75317;BME280;63913;51.492;10.368;2023-07-24T09:08:30;97239.13;;;22.01;55.86
75317;BME280;63913;51.492;10.368;2023-07-24T09:10:56;97247.09;;;21.98;56.91
75317;BME280;63913;51.492;10.368;2023-07-24T09:13:22;97248.91;;;21.96;56.12
75317;BME280;63913;51.492;10.368;2023-07-24T09:15:47;97242.94;;;21.93;55.11
75317;BME280;63913;51.492;10.368;2023-07-24T09:18:13;97264.84;;;21.90;56.13
75317;BME280;63913;51.492;10.368;2023-07-24T09:20:43;97242.16;;;21.91;55.58
75317;BME280;63913;51.492;10.368;2023-07-24T09:23:12;97241.00;;;21.98;55.27
75317;BME280;63913;51.492;10.368;2023-07-24T09:25:39;97254.03;;;21.99;55.04
75317;BME280;63913;51.492;10.368;2023-07-24T09:28:24;97232.91;;;22.04;54.85
75317;BME280;63913;51.492;10.368;2023-07-24T09:30:54;97243.94;;;22.11;54.89
75317;BME280;63913;51.492;10.368;2023-07-24T09:33:34;97233.94;;;22.20;54.41
75317;BME280;63913;51.492;10.368;2023-07-24T09:36:00;97230.75;;;22.32;55.57
75317;BME280;63913;51.492;10.368;2023-07-24T09:38:26;97224.38;;;22.38;54.96
75317;BME280;63913;51.492;10.368;2023-07-24T09:40:52;97222.19;;;22.48;54.07
75317;BME280;63913;51.492;10.368;2023-07-24T09:45:45;97207.84;;;22.94;53.01
75317;BME280;63913;51.492;10.368;2023-07-24T09:48:12;97208.97;;;23.24;53.79
75317;BME280;63913;51.492;10.368;2023-07-24T09:50:40;97206.41;;;23.23;52.39
75317;BME280;63913;51.492;10.368;2023-07-24T09:53:12;97193.84;;;23.29;51.57
75317;BME280;63913;51.492;10.368;2023-07-24T09:55:45;97197.31;;;23.30;52.56
75317;BME280;63913;51.492;10.368;2023-07-24T09:58:13;97206.97;;;23.29;51.85
75317;BME280;63913;51.492;10.368;2023-07-24T10:00:39;97183.28;;;23.48;51.49
75317;BME280;63913;51.492;10.368;2023-07-24T10:03:05;97186.72;;;23.67;51.10
75317;BME280;63913;51.492;10.368;2023-07-24T10:05:31;97183.50;;;23.95;51.04
75317;BME280;63913;51.492;10.368;2023-07-24T10:07:57;97196.16;;;24.04;50.56
75317;BME280;63913;51.492;10.368;2023-07-24T10:10:23;97179.94;;;23.96;48.36
75317;BME280;63913;51.492;10.368;2023-07-24T10:12:49;97181.59;;;23.81;49.25
75317;BME280;63913;51.492;10.368;2023-07-24T10:15:15;97174.19;;;23.72;49.62
75317;BME280;63913;51.492;10.368;2023-07-24T10:17:41;97174.25;;;23.88;49.59
75317;BME280;63913;51.492;10.368;2023-07-24T10:20:11;97158.13;;;24.11;49.30
75317;BME280;63913;51.492;10.368;2023-07-24T10:22:40;97148.72;;;24.07;48.66
75317;BME280;63913;51.492;10.368;2023-07-24T10:25:07;97139.75;;;24.11;49.73
75317;BME280;63913;51.492;10.368;2023-07-24T10:27:39;97133.97;;;24.05;48.16
75317;BME280;63913;51.492;10.368;2023-07-24T10:30:05;97133.97;;;24.05;48.40
75317;BME280;63913;51.492;10.368;2023-07-24T10:32:32;97134.56;;;24.10;48.81
75317;BME280;63913;51.492;10.368;2023-07-24T10:35:00;97128.63;;;24.06;49.36
75317;BME280;63913;51.492;10.368;2023-07-24T10:37:32;97120.06;;;24.03;49.62
75317;BME280;63913;51.492;10.368;2023-07-24T10:39:59;97134.97;;;24.02;49.21
75317;BME280;63913;51.492;10.368;2023-07-24T10:42:24;97127.44;;;23.96;49.36
75317;BME280;63913;51.492;10.368;2023-07-24T10:44:49;97131.50;;;23.69;49.31
75317;BME280;63913;51.492;10.368;2023-07-24T10:47:15;97133.38;;;23.49;50.52
75317;BME280;63913;51.492;10.368;2023-07-24T10:49:48;97138.44;;;23.35;50.99
75317;BME280;63913;51.492;10.368;2023-07-24T10:52:14;97136.38;;;23.25;51.25
75317;BME280;63913;51.492;10.368;2023-07-24T10:54:39;97136.50;;;23.21;50.94
75317;BME280;63913;51.492;10.368;2023-07-24T10:57:05;97150.88;;;23.14;51.64
75317;BME280;63913;51.492;10.368;2023-07-24T10:59:39;97140.63;;;23.10;50.13
75317;BME280;63913;51.492;10.368;2023-07-24T11:02:07;97150.00;;;23.14;50.46
75317;BME280;63913;51.492;10.368;2023-07-24T11:04:32;97131.59;;;23.33;50.59
75317;BME280;63913;51.492;10.368;2023-07-24T11:07:00;97125.97;;;23.57;50.16
75317;BME280;63913;51.492;10.368;2023-07-24T11:09:38;97163.19;;;23.99;48.61
75317;BME280;63913;51.492;10.368;2023-07-24T11:12:15;97150.16;;;24.30;48.85
75317;BME280;63913;51.492;10.368;2023-07-24T11:14:51;97145.31;;;24.22;47.79
75317;BME280;63913;51.492;10.368;2023-07-24T11:17:17;97132.72;;;24.12;47.32
75317;BME280;63913;51.492;10.368;2023-07-24T11:19:42;97134.59;;;24.25;47.21
75317;BME280;63913;51.492;10.368;2023-07-24T11:22:08;97134.47;;;24.44;47.01
75317;BME280;63913;51.492;10.368;2023-07-24T11:24:42;97127.34;;;24.62;45.77
75317;BME280;63913;51.492;10.368;2023-07-24T11:27:13;97145.16;;;24.73;45.05
75317;BME280;63913;51.492;10.368;2023-07-24T11:29:40;97115.28;;;24.58;45.57
75317;BME280;63913;51.492;10.368;2023-07-24T11:32:06;97123.25;;;24.41;45.45
75317;BME280;63913;51.492;10.368;2023-07-24T11:34:31;97131.13;;;24.25;46.76
75317;BME280;63913;51.492;10.368;2023-07-24T11:36:57;97144.91;;;24.13;45.94
75317;BME280;63913;51.492;10.368;2023-07-24T11:39:23;97123.69;;;24.00;45.90
75317;BME280;63913;51.492;10.368;2023-07-24T11:41:49;97128.19;;;23.98;46.50
75317;BME280;63913;51.492;10.368;2023-07-24T11:44:15;97115.22;;;23.95;46.95
75317;BME280;63913;51.492;10.368;2023-07-24T11:46:42;97116.22;;;23.92;47.18
75317;BME280;63913;51.492;10.368;2023-07-24T11:49:08;97112.66;;;23.93;46.60
75317;BME280;63913;51.492;10.368;2023-07-24T11:51:36;97113.19;;;24.00;46.16
75317;BME280;63913;51.492;10.368;2023-07-24T11:54:06;97108.28;;;23.94;45.65
75317;BME280;63913;51.492;10.368;2023-07-24T11:56:32;97101.69;;;24.03;46.42
75317;BME280;63913;51.492;10.368;2023-07-24T11:58:57;97103.97;;;24.09;46.87
75317;BME280;63913;51.492;10.368;2023-07-24T12:01:33;97098.88;;;24.23;46.07
75317;BME280;63913;51.492;10.368;2023-07-24T12:03:58;97106.25;;;24.32;46.27
75317;BME280;63913;51.492;10.368;2023-07-24T12:06:24;97090.97;;;24.54;46.14
75317;BME280;63913;51.492;10.368;2023-07-24T12:08:51;97087.94;;;24.30;45.74
75317;BME280;63913;51.492;10.368;2023-07-24T12:11:17;97103.56;;;24.16;46.30
75317;BME280;63913;51.492;10.368;2023-07-24T12:13:46;97092.88;;;24.04;47.09
75317;BME280;63913;51.492;10.368;2023-07-24T12:16:11;97079.91;;;24.01;45.38
75317;BME280;63913;51.492;10.368;2023-07-24T12:18:37;97082.09;;;23.92;45.52
75317;BME280;63913;51.492;10.368;2023-07-24T12:21:02;97084.47;;;23.81;45.08
75317;BME280;63913;51.492;10.368;2023-07-24T12:23:28;97093.50;;;23.76;45.53
75317;BME280;63913;51.492;10.368;2023-07-24T12:25:53;97080.88;;;23.67;46.10
75317;BME280;63913;51.492;10.368;2023-07-24T12:28:18;97085.03;;;23.71;45.50
75317;BME280;63913;51.492;10.368;2023-07-24T12:30:44;97067.94;;;23.79;46.51
75317;BME280;63913;51.492;10.368;2023-07-24T12:33:09;97069.22;;;23.88;46.29
75317;BME280;63913;51.492;10.368;2023-07-24T12:35:34;97058.63;;;23.89;45.29
75317;BME280;63913;51.492;10.368;2023-07-24T12:38:00;97059.31;;;23.93;45.85
75317;BME280;63913;51.492;10.368;2023-07-24T12:40:25;97067.53;;;24.03;45.68
75317;BME280;63913;51.492;10.368;2023-07-24T12:42:50;97062.28;;;24.03;44.81
75317;BME280;63913;51.492;10.368;2023-07-24T12:45:16;97060.66;;;24.00;44.04
75317;BME280;63913;51.492;10.368;2023-07-24T12:47:41;97055.53;;;23.99;43.89